sensor_id;sensor_type;location;lat;lon;timestamp;pressure;altitude;pressure_sealevel;temperature;humidity
69528;BME280;57136;51.986;4.468;2023-03-13T00:00:15;100195.69;;;9.34;100.00
69528;BME280;57136;51.986;4.468;2023-03-13T00:02:41;100187.00;;;9.43;100.00
69528;BME280;57136;51.986;4.468;2023-03-13T00:05:12;100177.47;;;9.34;100.00
69528;BME280;57136;51.986;4.468;2023-03-13T00:07:38;100162.75;;;9.27;100.00
69528;BME280;57136;51.986;4.468;2023-03-13T00:10:04;100149.75;;;9.36;100.00
69528;BME280;57136;51.986;4.468;2023-03-13T00:12:30;100143.69;;;9.29;100.00
69528;BME280;57136;51.986;4.468;2023-03-13T00:14:55;100138.44;;;9.36;100.00
69528;BME280;57136;51.986;4.468;2023-03-13T00:17:21;100122.03;;;9.34;100.00
69528;BME280;57136;51.986;4.468;2023-03-13T00:19:46;100128.94;;;9.32;100.00
69528;BME280;57136;51.986;4.468;2023-03-13T00:22:12;100113.31;;;9.47;100.00
69528;BME280;57136;51.986;4.468;2023-03-13T00:24:37;100097.72;;;9.46;100.00
69528;BME280;57136;51.986;4.468;2023-03-13T00:27:03;100096.84;;;9.42;100.00
69528;BME280;57136;51.986;4.468;2023-03-13T00:29:31;100101.22;;;9.29;100.00
69528;BME280;57136;51.986;4.468;2023-03-13T00:31:57;100087.25;;;9.52;100.00
69528;BME280;57136;51.986;4.468;2023-03-13T00:34:22;100087.28;;;9.56;100.00
69528;BME280;57136;51.986;4.468;2023-03-13T00:36:50;100073.41;;;9.51;100.00
69528;BME280;57136;51.986;4.468;2023-03-13T00:39:16;100069.91;;;9.62;100.00
69528;BME280;57136;51.986;4.468;2023-03-13T00:41:41;100063.00;;;9.57;100.00
69528;BME280;57136;51.986;4.468;2023-03-13T00:44:08;100049.94;;;9.68;100.00
69528;BME280;57136;51.986;4.468;2023-03-13T00:46:33;100041.31;;;9.57;100.00
69528;BME280;57136;51.986;4.468;2023-03-13T00:48:58;100039.56;;;9.61;100.00
69528;BME280;57136;51.986;4.468;2023-03-13T00:51:25;100034.41;;;9.45;100.00
69528;BME280;57136;51.986;4.468;2023-03-13T00:53:51;100037.00;;;9.54;100.00
69528;BME280;57136;51.986;4.468;2023-03-13T00:56:18;100017.09;;;9.46;100.00
69528;BME280;57136;51.986;4.468;2023-03-13T00:58:46;100021.31;;;9.64;100.00
69528;BME280;57136;51.986;4.468;2023-03-13T01:03:45;100013.47;;;9.73;100.00
69528;BME280;57136;51.986;4.468;2023-03-13T01:06:14;99994.47;;;9.62;100.00
69528;BME280;57136;51.986;4.468;2023-03-13T01:08:40;99996.13;;;9.72;100.00
69528;BME280;57136;51.986;4.468;2023-03-13T01:11:08;99992.66;;;9.76;100.00
69528;BME280;57136;51.986;4.468;2023-03-13T01:13:34;99985.72;;;9.75;100.00
69528;BME280;57136;51.986;4.468;2023-03-13T01:16:11;99975.28;;;9.77;100.00
69528;BME280;57136;51.986;4.468;2023-03-13T01:18:39;99974.44;;;9.76;100.00
69528;BME280;57136;51.986;4.468;2023-03-13T01:21:05;99964.06;;;9.74;100.00
69528;BME280;57136;51.986;4.468;2023-03-13T01:23:31;99977.84;;;9.87;100.00
69528;BME280;57136;51.986;4.468;2023-03-13T01:25:56;99955.28;;;9.86;100.00
69528;BME280;57136;51.986;4.468;2023-03-13T01:28:23;99970.84;;;9.97;100.00
69528;BME280;57136;51.986;4.468;2023-03-13T01:30:48;99963.09;;;9.89;100.00
69528;BME280;57136;51.986;4.468;2023-03-13T01:33:14;99947.25;;;10.16;100.00
69528;BME280;57136;51.986;4.468;2023-03-13T01:35:40;99950.06;;;9.88;100.00
69528;BME280;57136;51.986;4.468;2023-03-13T01:38:05;99931.72;;;10.05;100.00
69528;BME280;57136;51.986;4.468;2023-03-13T01:40:37;99927.31;;;10.12;100.00
69528;BME280;57136;51.986;4.468;2023-03-13T01:43:15;99934.41;;;9.93;100.00
69528;BME280;57136;51.986;4.468;2023-03-13T01:49:01;99911.88;;;9.92;100.00
69528;BME280;57136;51.986;4.468;2023-03-13T01:51:41;99914.22;;;10.21;100.00
69528;BME280;57136;51.986;4.468;2023-03-13T01:54:30;99903.91;;;10.12;100.00
69528;BME280;57136;51.986;4.468;2023-03-13T01:57:00;99894.25;;;10.22;100.00
69528;BME280;57136;51.986;4.468;2023-03-13T01:59:36;99865.66;;;10.20;100.00
69528;BME280;57136;51.986;4.468;2023-03-13T02:02:04;99883.81;;;10.25;100.00
69528;BME280;57136;51.986;4.468;2023-03-13T02:04:34;99882.84;;;10.35;100.00
69528;BME280;57136;51.986;4.468;2023-03-13T02:07:05;99870.78;;;10.29;100.00
69528;BME280;57136;51.986;4.468;2023-03-13T02:09:34;99875.03;;;10.40;100.00
69528;BME280;57136;51.986;4.468;2023-03-13T02:12:12;99864.59;;;10.37;100.00
69528;BME280;57136;51.986;4.468;2023-03-13T02:14:41;99854.09;;;10.49;100.00
69528;BME280;57136;51.986;4.468;2023-03-13T02:17:07;99859.25;;;10.54;100.00
69528;BME280;57136;51.986;4.468;2023-03-13T02:19:39;99858.44;;;10.50;100.00
69528;BME280;57136;51.986;4.468;2023-03-13T02:27:27;99845.91;;;10.80;100.00
69528;BME280;57136;51.986;4.468;2023-03-13T02:29:53;99840.66;;;10.83;100.00
69528;BME280;57136;51.986;4.468;2023-03-13T02:32:18;99842.41;;;10.84;100.00
69528;BME280;57136;51.986;4.468;2023-03-13T02:34:46;99847.66;;;10.81;100.00
69528;BME280;57136;51.986;4.468;2023-03-13T02:37:13;99847.59;;;10.84;100.00
69528;BME280;57136;51.986;4.468;2023-03-13T02:39:44;99852.69;;;10.93;100.00
69528;BME280;57136;51.986;4.468;2023-03-13T02:42:13;99832.75;;;10.91;100.00
69528;BME280;57136;51.986;4.468;2023-03-13T02:44:40;99852.69;;;10.95;100.00
69528;BME280;57136;51.986;4.468;2023-03-13T02:47:06;99850.97;;;10.92;100.00
69528;BME280;57136;51.986;4.468;2023-03-13T02:49:34;99847.25;;;11.11;100.00
69528;BME280;57136;51.986;4.468;2023-03-13T02:52:08;99830.75;;;11.08;100.00
69528;BME280;57136;51.986;4.468;2023-03-13T02:54:37;99841.91;;;11.20;100.00
69528;BME280;57136;51.986;4.468;2023-03-13T02:57:04;99821.94;;;11.19;100.00
69528;BME280;57136;51.986;4.468;2023-03-13T02:59:30;99809.66;;;11.26;100.00
69528;BME280;57136;51.986;4.468;2023-03-13T03:01:56;99805.31;;;11.26;100.00
69528;BME280;57136;51.986;4.468;2023-03-13T03:04:23;99812.81;;;11.48;100.00
69528;BME280;57136;51.986;4.468;2023-03-13T03:06:49;99804.72;;;11.63;100.00
69528;BME280;57136;51.986;4.468;2023-03-13T03:09:16;99811.13;;;11.44;100.00
69528;BME280;57136;51.986;4.468;2023-03-13T03:11:42;99817.28;;;11.41;100.00
69528;BME280;57136;51.986;4.468;2023-03-13T03:14:08;99799.66;;;11.54;100.00
69528;BME280;57136;51.986;4.468;2023-03-13T03:16:34;99804.81;;;11.59;100.00
69528;BME280;57136;51.986;4.468;2023-03-13T03:18:59;99815.03;;;11.71;100.00
69528;BME280;57136;51.986;4.468;2023-03-13T03:21:25;99811.75;;;11.58;100.00
69528;BME280;57136;51.986;4.468;2023-03-13T03:23:50;99817.63;;;11.73;100.00
69528;BME280;57136;51.986;4.468;2023-03-13T03:26:16;99809.97;;;11.60;100.00
69528;BME280;57136;51.986;4.468;2023-03-13T03:28:41;99812.59;;;11.62;100.00
69528;BME280;57136;51.986;4.468;2023-03-13T03:31:09;99816.00;;;11.67;100.00
69528;BME280;57136;51.986;4.468;2023-03-13T03:33:35;99790.16;;;11.50;100.00
69528;BME280;57136;51.986;4.468;2023-03-13T03:36:03;99798.78;;;11.55;100.00
69528;BME280;57136;51.986;4.468;2023-03-13T03:38:28;99811.00;;;11.53;100.00
69528;BME280;57136;51.986;4.468;2023-03-13T03:40:54;99797.16;;;11.46;100.00
69528;BME280;57136;51.986;4.468;2023-03-13T03:43:19;99791.94;;;11.48;100.00
69528;BME280;57136;51.986;4.468;2023-03-13T03:45:46;99792.91;;;11.41;100.00
69528;BME280;57136;51.986;4.468;2023-03-13T03:48:11;99789.28;;;11.49;100.00
69528;BME280;57136;51.986;4.468;2023-03-13T03:50:37;99790.91;;;11.57;100.00
69528;BME280;57136;51.986;4.468;2023-03-13T03:53:02;99784.09;;;11.48;100.00
69528;BME280;57136;51.986;4.468;2023-03-13T03:55:28;99786.63;;;11.52;100.00
69528;BME280;57136;51.986;4.468;2023-03-13T03:57:53;99776.25;;;11.49;100.00
69528;BME280;57136;51.986;4.468;2023-03-13T04:00:18;99780.56;;;11.50;100.00
69528;BME280;57136;51.986;4.468;2023-03-13T04:02:44;99774.56;;;11.47;100.00
69528;BME280;57136;51.986;4.468;2023-03-13T04:05:09;99774.56;;;11.45;100.00
69528;BME280;57136;51.986;4.468;2023-03-13T04:07:35;99762.19;;;11.58;100.00
69528;BME280;57136;51.986;4.468;2023-03-13T04:10:00;99760.72;;;11.42;100.00
69528;BME280;57136;51.986;4.468;2023-03-13T04:12:26;99769.25;;;11.53;100.00
69528;BME280;57136;51.986;4.468;2023-03-13T04:14:51;99767.63;;;11.46;100.00
69528;BME280;57136;51.986;4.468;2023-03-13T04:17:16;99761.34;;;11.58;100.00
69528;BME280;57136;51.986;4.468;2023-03-13T04:19:42;99768.47;;;11.46;100.00
69528;BME280;57136;51.986;4.468;2023-03-13T04:22:07;99761.41;;;11.53;100.00
69528;BME280;57136;51.986;4.468;2023-03-13T04:24:33;99746.94;;;11.35;100.00
69528;BME280;57136;51.986;4.468;2023-03-13T04:26:58;99762.50;;;11.39;100.00
69528;BME280;57136;51.986;4.468;2023-03-13T04:29:24;99751.19;;;11.41;100.00
69528;BME280;57136;51.986;4.468;2023-03-13T04:31:49;99759.78;;;11.46;100.00
69528;BME280;57136;51.986;4.468;2023-03-13T04:34:15;99744.03;;;11.52;100.00
69528;BME280;57136;51.986;4.468;2023-03-13T04:36:41;99760.50;;;11.56;100.00
69528;BME280;57136;51.986;4.468;2023-03-13T04:39:06;99731.94;;;11.48;100.00
69528;BME280;57136;51.986;4.468;2023-03-13T04:41:31;99750.00;;;11.59;100.00
69528;BME280;57136;51.986;4.468;2023-03-13T04:43:57;99738.69;;;11.60;100.00
69528;BME280;57136;51.986;4.468;2023-03-13T04:46:22;99738.69;;;11.58;100.00
69528;BME280;57136;51.986;4.468;2023-03-13T04:48:47;99735.03;;;11.70;100.00
69528;BME280;57136;51.986;4.468;2023-03-13T04:51:13;99705.59;;;11.60;100.00
69528;BME280;57136;51.986;4.468;2023-03-13T04:53:38;99728.00;;;11.74;100.00
69528;BME280;57136;51.986;4.468;2023-03-13T04:56:04;99710.56;;;11.76;100.00
69528;BME280;57136;51.986;4.468;2023-03-13T04:58:29;99719.22;;;11.78;100.00
69528;BME280;57136;51.986;4.468;2023-03-13T05:00:55;99704.34;;;11.83;100.00
69528;BME280;57136;51.986;4.468;2023-03-13T05:03:21;99708.31;;;12.04;100.00
69528;BME280;57136;51.986;4.468;2023-03-13T05:05:47;99708.22;;;12.09;100.00
69528;BME280;57136;51.986;4.468;2023-03-13T05:08:12;99702.28;;;12.01;100.00
69528;BME280;57136;51.986;4.468;2023-03-13T05:10:38;99688.94;;;12.14;100.00
69528;BME280;57136;51.986;4.468;2023-03-13T05:13:06;99698.34;;;12.25;100.00
69528;BME280;57136;51.986;4.468;2023-03-13T05:15:31;99686.44;;;12.10;100.00
69528;BME280;57136;51.986;4.468;2023-03-13T05:17:57;99673.22;;;12.18;100.00
69528;BME280;57136;51.986;4.468;2023-03-13T05:20:22;99686.22;;;12.19;100.00
69528;BME280;57136;51.986;4.468;2023-03-13T05:22:47;99667.09;;;12.19;100.00
69528;BME280;57136;51.986;4.468;2023-03-13T05:25:14;99660.81;;;12.27;100.00
69528;BME280;57136;51.986;4.468;2023-03-13T05:27:39;99669.19;;;12.43;100.00
69528;BME280;57136;51.986;4.468;2023-03-13T05:30:05;99666.59;;;12.42;100.00
69528;BME280;57136;51.986;4.468;2023-03-13T05:32:31;99664.13;;;12.36;100.00
69528;BME280;57136;51.986;4.468;2023-03-13T05:34:56;99664.72;;;12.49;100.00
69528;BME280;57136;51.986;4.468;2023-03-13T05:37:22;99653.44;;;12.47;100.00
69528;BME280;57136;51.986;4.468;2023-03-13T05:39:47;99656.97;;;12.44;100.00
69528;BME280;57136;51.986;4.468;2023-03-13T05:42:12;99666.28;;;12.56;100.00
69528;BME280;57136;51.986;4.468;2023-03-13T05:44:38;99619.25;;;12.56;100.00
69528;BME280;57136;51.986;4.468;2023-03-13T05:47:03;99672.31;;;12.59;100.00
69528;BME280;57136;51.986;4.468;2023-03-13T05:49:29;99654.81;;;12.63;100.00
69528;BME280;57136;51.986;4.468;2023-03-13T05:51:54;99657.56;;;12.57;100.00
69528;BME280;57136;51.986;4.468;2023-03-13T05:54:20;99652.13;;;12.66;100.00
69528;BME280;57136;51.986;4.468;2023-03-13T05:56:45;99663.53;;;12.62;100.00
69528;BME280;57136;51.986;4.468;2023-03-13T05:59:13;99632.56;;;12.45;100.00
69528;BME280;57136;51.986;4.468;2023-03-13T06:01:38;99647.91;;;12.59;100.00
69528;BME280;57136;51.986;4.468;2023-03-13T06:04:03;99664.19;;;12.72;100.00
69528;BME280;57136;51.986;4.468;2023-03-13T06:06:29;99647.00;;;12.62;100.00
69528;BME280;57136;51.986;4.468;2023-03-13T06:08:54;99669.78;;;12.55;100.00
69528;BME280;57136;51.986;4.468;2023-03-13T06:11:20;99667.28;;;12.52;100.00
69528;BME280;57136;51.986;4.468;2023-03-13T06:13:46;99662.97;;;12.49;100.00
69528;BME280;57136;51.986;4.468;2023-03-13T06:16:11;99667.00;;;12.23;100.00
69528;BME280;57136;51.986;4.468;2023-03-13T06:18:37;99658.34;;;12.21;100.00
69528;BME280;57136;51.986;4.468;2023-03-13T06:21:02;99671.66;;;12.09;100.00
69528;BME280;57136;51.986;4.468;2023-03-13T06:23:28;99660.03;;;11.78;100.00
69528;BME280;57136;51.986;4.468;2023-03-13T06:25:53;99671.53;;;11.69;100.00
69528;BME280;57136;51.986;4.468;2023-03-13T06:28:19;99686.09;;;11.81;100.00
69528;BME280;57136;51.986;4.468;2023-03-13T06:30:46;99674.50;;;11.49;100.00
69528;BME280;57136;51.986;4.468;2023-03-13T06:33:11;99658.84;;;11.49;100.00
69528;BME280;57136;51.986;4.468;2023-03-13T06:35:41;99678.91;;;11.46;100.00
69528;BME280;57136;51.986;4.468;2023-03-13T06:38:07;99686.75;;;11.44;100.00
69528;BME280;57136;51.986;4.468;2023-03-13T06:40:33;99670.31;;;11.41;100.00
69528;BME280;57136;51.986;4.468;2023-03-13T06:42:58;99674.19;;;11.18;100.00
69528;BME280;57136;51.986;4.468;2023-03-13T06:45:24;99668.03;;;11.20;100.00
69528;BME280;57136;51.986;4.468;2023-03-13T06:47:49;99652.34;;;11.23;100.00
69528;BME280;57136;51.986;4.468;2023-03-13T06:50:16;99667.09;;;11.26;100.00
69528;BME280;57136;51.986;4.468;2023-03-13T06:52:41;99663.56;;;11.29;100.00
69528;BME280;57136;51.986;4.468;2023-03-13T06:55:07;99657.25;;;11.41;100.00
69528;BME280;57136;51.986;4.468;2023-03-13T06:57:33;99658.47;;;11.21;100.00
69528;BME280;57136;51.986;4.468;2023-03-13T06:59:58;99655.53;;;11.39;100.00
69528;BME280;57136;51.986;4.468;2023-03-13T07:02:24;99655.44;;;11.44;100.00
69528;BME280;57136;51.986;4.468;2023-03-13T07:04:49;99661.66;;;11.38;100.00
69528;BME280;57136;51.986;4.468;2023-03-13T07:07:14;99661.69;;;11.37;100.00
69528;BME280;57136;51.986;4.468;2023-03-13T07:09:40;99663.38;;;11.39;100.00
69528;BME280;57136;51.986;4.468;2023-03-13T07:12:06;99660.06;;;11.30;100.00
69528;BME280;57136;51.986;4.468;2023-03-13T07:14:31;99655.00;;;11.22;100.00
69528;BME280;57136;51.986;4.468;2023-03-13T07:16:58;99661.88;;;11.26;100.00
69528;BME280;57136;51.986;4.468;2023-03-13T07:19:24;99639.41;;;11.19;100.00
69528;BME280;57136;51.986;4.468;2023-03-13T07:21:50;99657.34;;;11.36;100.00
69528;BME280;57136;51.986;4.468;2023-03-13T07:24:17;99660.94;;;11.29;100.00
69528;BME280;57136;51.986;4.468;2023-03-13T07:26:42;99669.63;;;11.31;100.00
69528;BME280;57136;51.986;4.468;2023-03-13T07:29:08;99680.66;;;11.45;100.00
69528;BME280;57136;51.986;4.468;2023-03-13T07:31:34;99675.38;;;11.48;100.00
69528;BME280;57136;51.986;4.468;2023-03-13T07:34:00;99667.50;;;11.53;100.00
69528;BME280;57136;51.986;4.468;2023-03-13T07:36:25;99665.56;;;11.63;100.00
69528;BME280;57136;51.986;4.468;2023-03-13T07:38:51;99661.13;;;11.66;100.00
69528;BME280;57136;51.986;4.468;2023-03-13T07:41:18;99668.34;;;12.01;100.00
69528;BME280;57136;51.986;4.468;2023-03-13T07:43:44;99664.00;;;11.99;100.00
69528;BME280;57136;51.986;4.468;2023-03-13T07:46:15;99652.34;;;12.16;100.00
69528;BME280;57136;51.986;4.468;2023-03-13T07:48:43;99641.94;;;12.14;100.00
69528;BME280;57136;51.986;4.468;2023-03-13T07:51:17;99642.84;;;12.13;100.00
69528;BME280;57136;51.986;4.468;2023-03-13T07:53:46;99635.22;;;12.03;100.00
69528;BME280;57136;51.986;4.468;2023-03-13T07:56:14;99659.06;;;12.28;100.00
69528;BME280;57136;51.986;4.468;2023-03-13T07:58:41;99654.34;;;12.44;100.00
69528;BME280;57136;51.986;4.468;2023-03-13T08:01:19;99659.19;;;12.61;100.00
69528;BME280;57136;51.986;4.468;2023-03-13T08:03:47;99635.66;;;12.63;100.00
69528;BME280;57136;51.986;4.468;2023-03-13T08:06:25;99645.19;;;12.65;100.00
69528;BME280;57136;51.986;4.468;2023-03-13T08:08:52;99641.47;;;12.36;100.00
69528;BME280;57136;51.986;4.468;2023-03-13T08:11:22;99635.91;;;12.52;100.00
69528;BME280;57136;51.986;4.468;2023-03-13T08:13:49;99629.44;;;12.29;100.00
69528;BME280;57136;51.986;4.468;2023-03-13T08:16:16;99620.09;;;12.19;100.00
69528;BME280;57136;51.986;4.468;2023-03-13T08:18:48;99626.50;;;12.43;100.00
69528;BME280;57136;51.986;4.468;2023-03-13T08:21:16;99627.38;;;12.43;100.00
69528;BME280;57136;51.986;4.468;2023-03-13T08:23:42;99620.38;;;12.44;100.00
69528;BME280;57136;51.986;4.468;2023-03-13T08:26:13;99608.84;;;12.54;100.00
69528;BME280;57136;51.986;4.468;2023-03-13T08:28:40;99623.41;;;12.65;100.00
69528;BME280;57136;51.986;4.468;2023-03-13T08:31:07;99614.41;;;12.77;100.00
69528;BME280;57136;51.986;4.468;2023-03-13T08:33:33;99610.56;;;12.92;100.00
69528;BME280;57136;51.986;4.468;2023-03-13T08:35:58;99618.84;;;13.09;100.00
69528;BME280;57136;51.986;4.468;2023-03-13T08:38:23;99584.34;;;13.28;100.00
69528;BME280;57136;51.986;4.468;2023-03-13T08:40:49;99596.03;;;13.14;100.00
69528;BME280;57136;51.986;4.468;2023-03-13T08:43:20;99604.25;;;13.33;100.00
69528;BME280;57136;51.986;4.468;2023-03-13T08:45:46;99619.84;;;13.38;100.00
69528;BME280;57136;51.986;4.468;2023-03-13T08:48:11;99610.63;;;13.23;100.00
69528;BME280;57136;51.986;4.468;2023-03-13T08:50:37;99604.53;;;13.57;100.00
69528;BME280;57136;51.986;4.468;2023-03-13T08:53:02;99584.09;;;13.70;100.00
69528;BME280;57136;51.986;4.468;2023-03-13T08:55:27;99612.13;;;13.97;100.00
69528;BME280;57136;51.986;4.468;2023-03-13T08:57:53;99611.63;;;13.84;100.00
69528;BME280;57136;51.986;4.468;2023-03-13T09:00:18;99592.28;;;13.89;100.00
69528;BME280;57136;51.986;4.468;2023-03-13T09:02:44;99600.03;;;13.92;100.00
69528;BME280;57136;51.986;4.468;2023-03-13T09:05:09;99595.59;;;13.94;100.00
69528;BME280;57136;51.986;4.468;2023-03-13T09:07:34;99571.03;;;13.99;100.00
69528;BME280;57136;51.986;4.468;2023-03-13T09:10:00;99586.63;;;13.73;100.00
69528;BME280;57136;51.986;4.468;2023-03-13T09:12:25;99579.59;;;14.05;100.00
69528;BME280;57136;51.986;4.468;2023-03-13T09:14:51;99589.53;;;14.51;100.00
69528;BME280;57136;51.986;4.468;2023-03-13T09:17:17;99566.16;;;14.72;96.86
69528;BME280;57136;51.986;4.468;2023-03-13T09:19:42;99582.00;;;14.68;97.49
69528;BME280;57136;51.986;4.468;2023-03-13T09:22:07;99562.22;;;14.58;96.43
69528;BME280;57136;51.986;4.468;2023-03-13T09:24:33;99576.50;;;15.03;95.84
69528;BME280;57136;51.986;4.468;2023-03-13T09:26:59;99561.38;;;14.85;95.75
69528;BME280;57136;51.986;4.468;2023-03-13T09:29:25;99564.94;;;15.09;95.11
69528;BME280;57136;51.986;4.468;2023-03-13T09:31:50;99558.81;;;15.34;94.13
69528;BME280;57136;51.986;4.468;2023-03-13T09:34:15;99552.75;;;16.27;91.49
69528;BME280;57136;51.986;4.468;2023-03-13T09:36:41;99529.72;;;16.32;87.58
69528;BME280;57136;51.986;4.468;2023-03-13T09:39:06;99534.84;;;15.67;90.10
69528;BME280;57136;51.986;4.468;2023-03-13T09:41:42;99537.00;;;15.32;93.55
69528;BME280;57136;51.986;4.468;2023-03-13T09:44:21;99537.50;;;15.18;93.43
69528;BME280;57136;51.986;4.468;2023-03-13T09:49:27;99509.41;;;14.96;94.32
69528;BME280;57136;51.986;4.468;2023-03-13T09:52:01;99515.97;;;15.57;92.25
69528;BME280;57136;51.986;4.468;2023-03-13T09:54:46;99521.06;;;15.36;92.44
69528;BME280;57136;51.986;4.468;2023-03-13T09:57:26;99523.25;;;15.49;90.35
69528;BME280;57136;51.986;4.468;2023-03-13T10:00:06;99507.41;;;15.52;89.84
69528;BME280;57136;51.986;4.468;2023-03-13T10:02:37;99495.03;;;15.78;88.23
69528;BME280;57136;51.986;4.468;2023-03-13T10:05:13;99505.06;;;15.44;88.69
69528;BME280;57136;51.986;4.468;2023-03-13T10:07:41;99519.13;;;15.18;91.04
69528;BME280;57136;51.986;4.468;2023-03-13T10:10:13;99515.78;;;15.38;91.38
69528;BME280;57136;51.986;4.468;2023-03-13T10:12:44;99524.78;;;15.54;89.82
69528;BME280;57136;51.986;4.468;2023-03-13T10:15:33;99525.28;;;15.42;89.56
69528;BME280;57136;51.986;4.468;2023-03-13T10:18:11;99509.22;;;15.26;88.39
69528;BME280;57136;51.986;4.468;2023-03-13T10:20:40;99519.53;;;15.07;88.17
69528;BME280;57136;51.986;4.468;2023-03-13T10:23:13;99529.69;;;15.16;86.97
69528;BME280;57136;51.986;4.468;2023-03-13T10:25:40;99526.72;;;15.49;86.11
69528;BME280;57136;51.986;4.468;2023-03-13T10:28:14;99512.41;;;15.82;81.51
69528;BME280;57136;51.986;4.468;2023-03-13T10:30:49;99509.28;;;15.72;79.92
69528;BME280;57136;51.986;4.468;2023-03-13T10:33:27;99517.47;;;15.15;83.42
69528;BME280;57136;51.986;4.468;2023-03-13T10:36:08;99508.94;;;15.08;84.17
69528;BME280;57136;51.986;4.468;2023-03-13T10:41:34;99515.97;;;15.08;85.62
69528;BME280;57136;51.986;4.468;2023-03-13T10:44:03;99512.06;;;15.43;83.80
69528;BME280;57136;51.986;4.468;2023-03-13T10:46:32;99503.06;;;15.51;84.45
69528;BME280;57136;51.986;4.468;2023-03-13T10:49:03;99487.56;;;15.91;80.46
69528;BME280;57136;51.986;4.468;2023-03-13T10:51:37;99489.72;;;15.79;82.02
69528;BME280;57136;51.986;4.468;2023-03-13T10:54:34;99496.13;;;15.96;80.66
69528;BME280;57136;51.986;4.468;2023-03-13T10:59:51;99486.34;;;15.99;77.12
69528;BME280;57136;51.986;4.468;2023-03-13T11:02:26;99478.41;;;15.77;75.99
69528;BME280;57136;51.986;4.468;2023-03-13T11:04:52;99464.38;;;15.78;75.42
69528;BME280;57136;51.986;4.468;2023-03-13T11:07:25;99508.72;;;15.64;77.35
69528;BME280;57136;51.986;4.468;2023-03-13T11:09:58;99495.34;;;15.94;76.20
69528;BME280;57136;51.986;4.468;2023-03-13T11:12:24;99459.47;;;15.93;75.63
69528;BME280;57136;51.986;4.468;2023-03-13T11:14:56;99469.97;;;15.47;76.03
69528;BME280;57136;51.986;4.468;2023-03-13T11:17:29;99493.06;;;15.61;77.56
69528;BME280;57136;51.986;4.468;2023-03-13T11:22:50;99496.41;;;15.64;73.87
69528;BME280;57136;51.986;4.468;2023-03-13T11:25:19;99487.38;;;15.95;73.23
69528;BME280;57136;51.986;4.468;2023-03-13T11:28:04;99506.97;;;16.53;71.15
69528;BME280;57136;51.986;4.468;2023-03-13T11:33:43;99508.88;;;16.27;67.36
69528;BME280;57136;51.986;4.468;2023-03-13T11:36:27;99510.28;;;16.36;67.86
69528;BME280;57136;51.986;4.468;2023-03-13T11:47:04;99506.06;;;16.32;65.15
69528;BME280;57136;51.986;4.468;2023-03-13T11:54:46;99488.88;;;16.87;66.16
69528;BME280;57136;51.986;4.468;2023-03-13T11:57:34;99464.63;;;16.39;67.10
69528;BME280;57136;51.986;4.468;2023-03-13T12:02:42;99491.22;;;15.86;71.83
69528;BME280;57136;51.986;4.468;2023-03-13T12:05:13;99485.75;;;15.69;73.20
69528;BME280;57136;51.986;4.468;2023-03-13T12:07:49;99488.00;;;15.56;73.69
69528;BME280;57136;51.986;4.468;2023-03-13T12:10:18;99482.34;;;15.67;73.61
69528;BME280;57136;51.986;4.468;2023-03-13T12:13:00;99498.47;;;15.80;74.06
69528;BME280;57136;51.986;4.468;2023-03-13T12:15:40;99490.91;;;15.94;73.49
69528;BME280;57136;51.986;4.468;2023-03-13T12:18:35;99472.66;;;15.91;72.38
69528;BME280;57136;51.986;4.468;2023-03-13T12:26:44;99475.16;;;15.94;73.29
69528;BME280;57136;51.986;4.468;2023-03-13T12:30:18;99478.19;;;16.71;71.57
69528;BME280;57136;51.986;4.468;2023-03-13T12:32:26;99494.28;;;16.63;72.13
69528;BME280;57136;51.986;4.468;2023-03-13T12:35:07;99498.22;;;16.94;70.74
69528;BME280;57136;51.986;4.468;2023-03-13T12:37:44;99461.91;;;16.61;71.19
69528;BME280;57136;51.986;4.468;2023-03-13T12:40:24;99479.31;;;17.06;69.72
69528;BME280;57136;51.986;4.468;2023-03-13T12:46:47;99460.88;;;16.65;68.47
69528;BME280;57136;51.986;4.468;2023-03-13T13:00:15;99425.31;;;16.56;67.14
69528;BME280;57136;51.986;4.468;2023-03-13T13:02:44;99450.94;;;16.30;65.37
69528;BME280;57136;51.986;4.468;2023-03-13T13:05:18;99421.34;;;16.87;63.84
69528;BME280;57136;51.986;4.468;2023-03-13T13:07:52;99438.91;;;16.66;62.14
69528;BME280;57136;51.986;4.468;2023-03-13T13:10:21;99434.38;;;16.49;62.93
69528;BME280;57136;51.986;4.468;2023-03-13T13:15:58;99435.53;;;17.04;64.05
69528;BME280;57136;51.986;4.468;2023-03-13T13:18:27;99391.69;;;16.63;62.82
69528;BME280;57136;51.986;4.468;2023-03-13T13:39:46;99408.91;;;15.64;66.46
69528;BME280;57136;51.986;4.468;2023-03-13T13:47:45;99371.81;;;16.16;62.46
69528;BME280;57136;51.986;4.468;2023-03-13T13:50:18;99386.25;;;16.06;62.82
69528;BME280;57136;51.986;4.468;2023-03-13T13:52:44;99386.19;;;15.85;62.29
69528;BME280;57136;51.986;4.468;2023-03-13T13:55:41;99370.16;;;15.93;63.09
69528;BME280;57136;51.986;4.468;2023-03-13T13:58:17;99381.19;;;15.79;64.00
69528;BME280;57136;51.986;4.468;2023-03-13T14:00:53;99353.47;;;15.27;65.22
69528;BME280;57136;51.986;4.468;2023-03-13T14:03:25;99371.38;;;15.16;66.87
69528;BME280;57136;51.986;4.468;2023-03-13T14:05:53;99368.19;;;15.53;65.40
69528;BME280;57136;51.986;4.468;2023-03-13T14:08:31;99362.97;;;15.30;66.53
69528;BME280;57136;51.986;4.468;2023-03-13T14:13:38;99364.34;;;15.40;67.77
69528;BME280;57136;51.986;4.468;2023-03-13T14:16:24;99347.13;;;15.33;66.39
69528;BME280;57136;51.986;4.468;2023-03-13T14:18:50;99326.91;;;15.57;66.56
69528;BME280;57136;51.986;4.468;2023-03-13T14:21:23;99346.00;;;15.38;65.12
69528;BME280;57136;51.986;4.468;2023-03-13T14:23:48;99335.16;;;15.70;64.05
69528;BME280;57136;51.986;4.468;2023-03-13T14:26:20;99361.78;;;15.61;65.53
69528;BME280;57136;51.986;4.468;2023-03-13T14:28:52;99339.59;;;15.46;65.32
69528;BME280;57136;51.986;4.468;2023-03-13T14:33:48;99356.31;;;15.65;62.76